• Join FlightAware (Why Join?)
  • Login
  • US Flag 
09:05PM EDT


 

Airport Tracker/Info


-or-


 

Live Flight TrackerFlight Track Log ✈ TMC493 ✈ 05-May-2013 ✈ 27K - KPWM

Flight Track Log - Related Links

Times and Time Zones

All times are in EDT time to prevent confusion due to time zone crossing. See the TMC493 flight status page for this flight to view local times or setup timezone preferences in your user account.

Time Position Orientation Groundspeed Altitude Reporting Facility
EDT Latitude Longitude Course Direction KTS MPH feet Rate Location/Type
11:47AM 38.2383 -84.3758 63° Northeast 193 222 3,900  Level Indianapolis Center
11:48AM 38.2556 -84.2969 74° East 240 276 6,400 2,940 Climbing Indianapolis Center
11:49AM 38.3031 -84.2008 58° Northeast 277 319 10,000 2,280 Climbing Indianapolis Center
11:50AM 38.3456 -84.1108 59° Northeast 295 339 11,100 1,500 Climbing Indianapolis Center
11:51AM 38.3789 -84.0178 65° Northeast 290 334 13,200 2,040 Climbing Indianapolis Center
11:52AM 38.5481 -83.7298 63° Northeast  Level FlightAware Approximate
11:52AM 38.4064 -83.9122 72° East 309 356 15,400  Level Indianapolis Center
11:53AM 38.4347 -83.8111 70° East 304 350 17,500 2,040 Climbing Indianapolis Center
11:54AM 38.4631 -83.7083 71° East 306 352 19,700 1,980 Climbing Indianapolis Center
11:55AM 38.4875 -83.5828 76° East 311 358 21,700 1,680 Climbing Indianapolis Center
11:56AM 38.5089 -83.4678 77° East 328 377 23,200 1,440 Climbing Indianapolis Center
11:57AM 38.5350 -83.3503 74° East 341 392 24,700 1,380 Climbing Indianapolis Center
11:58AM 38.5897 -83.2433 57° Northeast 358 412 26,100 1,380 Climbing Indianapolis Center
11:59AM 38.6444 -83.1350 57° Northeast 362 417 27,600 1,200 Climbing Indianapolis Center
12:00PM 38.6989 -83.0275 57° Northeast 366 421 28,600 960 Climbing Indianapolis Center
12:01PM 38.7569 -82.9139 57° Northeast 377 434 29,600 1,020 Climbing Indianapolis Center
12:02PM 38.8281 -82.7725 57° Northeast 390 449 30,800 960 Climbing Indianapolis Center
12:03PM 38.8878 -82.6544 57° Northeast 393 452 31,700 900 Climbing Indianapolis Center
12:04PM 38.9483 -82.5339 57° Northeast 399 459 32,700 900 Climbing Indianapolis Center
12:05PM 39.0092 -82.4119 57° Northeast 404 465 33,600 900 Climbing Indianapolis Center
12:06PM 39.0700 -82.2881 58° Northeast 408 470 34,600 960 Climbing Indianapolis Center
12:07PM 39.1317 -82.1644 57° Northeast 409 471 35,600 840 Climbing Indianapolis Center
12:08PM 39.1944 -82.0367 58° Northeast 416 479 36,400 660 Climbing Indianapolis Center
12:09PM 39.2581 -81.9061 58° Northeast 424 488 37,000 240 Climbing Indianapolis Center
12:10PM 39.3233 -81.7731 58° Northeast 434 499 37,000  Level Indianapolis Center
12:11PM 39.4053 -81.6053 58° Northeast 454 522 37,000  Level Indianapolis Center
12:12PM 39.4736 -81.4625 58° Northeast 463 533 37,000  Level Indianapolis Center
12:13PM 39.5436 -81.3189 58° Northeast 468 539 37,000  Level Indianapolis Center
12:14PM 39.5772 -81.2592 54° Northeast 467 537 37,000  Level Cleveland Center
12:15PM 39.6428 -81.1167 59° Northeast 467 537 37,000  Level Cleveland Center
12:16PM 39.7122 -80.9717 58° Northeast 467 537 37,000  Level Cleveland Center
12:17PM 39.7792 -80.8289 59° Northeast 467 537 37,000  Level Cleveland Center
12:18PM 39.8442 -80.6886 59° Northeast 461 531 37,000  Level Cleveland Center
12:19PM 39.9108 -80.5506 58° Northeast 451 519 37,000  Level Cleveland Center
12:20PM 39.9753 -80.4125 59° Northeast 451 519 37,000  Level Cleveland Center
12:21PM 40.0397 -80.2767 58° Northeast 451 519 37,000  Level Cleveland Center
12:22PM 40.1039 -80.1297 60° Northeast 427 491 37,000  Level Cleveland Center
12:23PM 40.1617 -80.0072 58° Northeast 422 486 37,000  Level Cleveland Center
12:24PM 40.2256 -79.8733 58° Northeast 427 491 37,000  Level Cleveland Center
12:25PM 40.2911 -79.7256 60° Northeast 427 491 37,000  Level Cleveland Center
12:26PM 40.3528 -79.5969 58° Northeast 427 491 37,000  Level Cleveland Center
12:27PM 40.4119 -79.4650 59° Northeast 422 486 37,000  Level Cleveland Center
12:28PM 40.4731 -79.3275 60° Northeast 422 486 37,000  Level Cleveland Center
12:29PM 40.5278 -79.1981 61° Northeast 422 486 37,000  Level Cleveland Center
12:30PM 40.5886 -79.0656 59° Northeast 422 486 37,000  Level Cleveland Center
12:31PM 40.6472 -78.9303 60° Northeast 422 486 37,000  Level Cleveland Center
12:32PM 40.7078 -78.7972 59° Northeast 422 486 37,000  Level Cleveland Center
12:33PM 40.7622 -78.6753 59° Northeast 422 486 37,000  Level Cleveland Center
12:35PM 40.8675 -78.4358 60° Northeast 425 489 37,000  Level New York Center
12:36PM 40.9264 -78.2969 61° Northeast 425 489 37,000  Level New York Center
12:37PM 40.9869 -78.1633 59° Northeast 419 482 37,000  Level New York Center
12:38PM 41.0453 -78.0292 60° Northeast 419 482 37,000  Level New York Center
12:39PM 41.1036 -77.8922 60° Northeast 419 482 37,000  Level New York Center
12:40PM 41.1617 -77.7578 60° Northeast 419 482 37,000  Level New York Center
12:41PM 41.2194 -77.6231 60° Northeast 419 482 37,000  Level New York Center
12:42PM 41.2772 -77.4881 60° Northeast 419 482 37,000  Level New York Center
12:43PM 41.3256 -77.3711 61° Northeast 409 471 37,000  Level New York Center
12:44PM 41.3828 -77.2386 60° Northeast 404 465 37,000  Level New York Center
12:45PM 41.4400 -77.1028 61° Northeast 404 465 37,000  Level New York Center
12:46PM 41.5022 -76.9508 61° Northeast 409 471 37,000  Level New York Center
12:48PM 41.6344 -76.6431 60° Northeast 412 474 37,000  Level Boston Center
12:49PM 41.6894 -76.5050 62° Northeast 412 474 37,000  Level Boston Center
12:50PM 41.7464 -76.3694 61° Northeast 412 474 37,000  Level Boston Center
12:51PM 41.8011 -76.2308 62° Northeast 412 474 37,000  Level Boston Center
12:52PM 41.8625 -76.0811 61° Northeast 412 474 37,000  Level Boston Center
12:53PM 41.9189 -75.9475 60° Northeast 407 468 37,000  Level Boston Center
12:54PM 41.9731 -75.8108 62° Northeast 407 468 37,000  Level Boston Center
12:55PM 42.0269 -75.6711 63° Northeast 407 468 37,000  Level Boston Center
12:56PM 42.0808 -75.5369 62° Northeast 407 468 37,000  Level Boston Center
12:57PM 42.1306 -75.3936 65° Northeast 407 468 37,000 -600 Level Boston Center
12:58PM 42.1781 -75.2531 65° Northeast 407 468 35,900 -1,020 Descending Boston Center
12:59PM 42.2139 -75.1453 66° East 401 461 35,000 -480 Descending Boston Center
01:00PM 42.2700 -74.9764 66° East 395 455 35,000  Level Boston Center
01:01PM 42.3147 -74.8381 66° East 395 455 35,000  Level Boston Center
01:02PM 42.3614 -74.6964 66° East 395 455 35,000  Level Boston Center
01:03PM 42.4078 -74.5575 66° East 395 455 35,000  Level Boston Center
01:04PM 42.4453 -74.4461 65° Northeast 400 460 35,000  Level Boston Center
01:05PM 42.4978 -74.2958 65° Northeast 395 455 35,000  Level Boston Center
01:06PM 42.5417 -74.1561 67° East 395 455 35,000  Level Boston Center
01:07PM 42.5853 -74.0192 67° East 395 455 35,000  Level Boston Center
01:08PM 42.6311 -73.8681 68° East 395 455 35,000  Level Boston Center
01:09PM 42.6722 -73.7333 67° East 388 447 35,000 -60 Level Boston Center
01:10PM 42.7172 -73.6156 62° Northeast 388 447 34,900 -300 Descending Boston Center
01:11PM 42.7583 -73.4778 68° East 388 447 34,500 -780 Descending Boston Center
01:12PM 42.8075 -73.3317 65° Northeast 373 429 33,300 -720 Descending Boston Center
01:13PM 42.8458 -73.2019 68° East 367 422 33,000 -360 Descending Boston Center
01:14PM 42.8883 -73.0719 66° East 367 422 32,600 -1,140 Descending Boston Center
01:15PM 42.9308 -72.9222 69° East 375 432 30,800 -1,620 Descending Boston Center
01:16PM 42.9708 -72.7919 67° East 375 432 29,400 -1,500 Descending Boston Center
01:17PM 43.0108 -72.6586 68° East 375 432 27,900 -1,500 Descending Boston Center
01:18PM 43.0611 -72.5197 64° Northeast 380 437 26,400 -1,560 Descending Boston Center
01:19PM 43.1047 -72.3833 66° East 385 443 24,800 -1,440 Descending Boston Center
01:20PM 43.1358 -72.2750 68° East 379 436 23,600 -1,440 Descending Boston Center
01:21PM 43.1772 -72.1183 70° East 373 429 22,000 -1,560 Descending Boston Center
01:22PM 43.2164 -71.9872 68° East 373 429 20,500 -1,380 Descending Boston Center
01:23PM 43.2494 -71.8814 67° East 373 429 19,300 -1,500 Descending Boston Center
01:24PM 43.2922 -71.7297 69° East 368 423 17,500 -1,560 Descending Boston Center
01:25PM 43.3269 -71.6181 67° East 361 415 16,200 -1,380 Descending Boston Center
01:26PM 43.3656 -71.4892 68° East 337 388 14,800 -1,320 Descending Boston Center
01:27PM 43.3958 -71.3800 69° East 332 382 13,600 -1,320 Descending Boston Center
01:28PM 43.4322 -71.2594 67° East 337 388 12,200 -1,260 Descending Boston Center
01:29PM 43.4703 -71.1242 69° East 337 388 11,100 -600 Descending Boston Center
01:30PM 43.4856 -71.0150 79° East 321 369 11,100 -600 Level Boston Center
01:31PM 43.4944 -70.8831 85° East 310 357 10,000 -1,500 Descending Boston Center
01:32PM 43.5014 -70.7828 85° East 281 323 8,100 -1,800 Descending Boston Center
01:33PM 43.5081 -70.6881 84° East 257 296 6,400 -1,860 Descending Boston Center
01:34PM 43.5150 -70.5906 84° East 251 289 4,400 -1,200 Descending Boston Center
01:35PM 43.5219 -70.4989 84° East 251 289 4,100 -180 Descending Boston Center
01:36PM 43.5306 -70.4039 83° East 251 289 4,100 -60 Level Boston Center
01:37PM 43.5372 -70.3150 84° East 244 281 4,000 -540 Descending Boston Center
01:38PM 43.5378 -70.2319 89° East 218 251 3,100 -480 Descending Boston Center
01:39PM 43.5658 -70.1764 55° Northeast 173 199 3,100 -540 Level Boston Center
01:40PM 43.6242 -70.1742 North 185 213 2,100 -720 Descending Boston Center
01:41PM 43.6539 -70.2047 323° Northwest 168 193 1,700 -420 Descending Boston Center
01:43PM 43.6333 -70.3000 311° West  Level FlightAware Approximate
01:50PM 43.6456 -70.3086 311° West  Level Estimated
01:51PM 43.6456 -70.3086 311° West  Level Estimated